Time;durP1;ratioP1;P1;durP2;ratioP2;P2;SDS_P1;SDS_P2;PMS_P1;PMS_P2;Temp;Humidity;BMP_temperature;BMP_pressure;BME280_temperature;BME280_humidity;BME280_pressure;Samples;Min_cycle;Max_cycle;Signal;HPM_P1;HPM_P2
2022/12/01 00:00:45;;;;;;;57.95;20.48;;;6.10;99.90;;;;;;5074498;28;20047;-65
2022/12/01 00:03:12;;;;;;;52.92;20.70;;;6.10;99.90;;;;;;5093381;28;20140;-65
2022/12/01 00:05:37;;;;;;;56.10;21.23;;;6.20;99.90;;;;;;5092395;28;20548;-65
2022/12/01 00:08:06;;;;;;;53.72;19.88;;;6.10;99.90;;;;;;5093202;28;20218;-65
2022/12/01 00:10:32;;;;;;;53.83;20.60;;;6.20;99.90;;;;;;5093033;28;20101;-64
2022/12/01 00:13:00;;;;;;;59.80;20.85;;;6.20;99.90;;;;;;5092555;28;20048;-65
2022/12/01 00:15:29;;;;;;;59.55;21.30;;;6.20;99.90;;;;;;5091797;28;20490;-65
2022/12/01 00:17:56;;;;;;;57.55;21.75;;;6.10;99.90;;;;;;5093099;28;20447;-65
2022/12/01 00:20:22;;;;;;;55.60;20.95;;;6.20;99.90;;;;;;5092876;28;20044;-65
2022/12/01 00:22:48;;;;;;;61.03;21.20;;;6.10;99.90;;;;;;5092805;28;20135;-65
2022/12/01 00:25:16;;;;;;;60.72;21.48;;;6.20;99.90;;;;;;5091543;28;20054;-65
2022/12/01 00:27:45;;;;;;;64.78;20.45;;;6.20;99.90;;;;;;5093096;28;20042;-65
2022/12/01 00:30:12;;;;;;;58.50;20.80;;;6.20;99.90;;;;;;5092847;28;20400;-65
2022/12/01 00:32:37;;;;;;;68.10;23.42;;;6.20;99.90;;;;;;5092769;28;20075;-65
2022/12/01 00:35:04;;;;;;;58.53;20.58;;;6.20;99.90;;;;;;5091685;28;20353;-66
2022/12/01 00:37:31;;;;;;;64.05;22.98;;;6.20;99.90;;;;;;5092504;28;20032;-66
2022/12/01 00:39:57;;;;;;;63.60;21.67;;;6.20;99.90;;;;;;5092312;28;20395;-65
2022/12/01 00:42:23;;;;;;;67.40;22.95;;;6.20;99.90;;;;;;5092587;28;20040;-66
2022/12/01 00:44:48;;;;;;;74.10;22.55;;;6.20;99.90;;;;;;5091454;28;20042;-64
2022/12/01 00:47:15;;;;;;;64.00;21.85;;;6.20;99.90;;;;;;5092535;28;20040;-66
2022/12/01 00:49:40;;;;;;;77.47;24.08;;;6.20;99.90;;;;;;5091945;28;20040;-65
2022/12/01 00:52:06;;;;;;;69.40;23.25;;;6.20;99.90;;;;;;5092400;28;20400;-65
2022/12/01 00:54:32;;;;;;;74.78;23.00;;;6.20;99.90;;;;;;5091350;28;20039;-66
2022/12/01 00:56:58;;;;;;;74.95;22.80;;;6.20;99.90;;;;;;5092450;28;20036;-66
2022/12/01 00:59:24;;;;;;;76.35;22.70;;;6.20;99.90;;;;;;5092211;28;20040;-66
2022/12/01 01:01:50;;;;;;;70.10;23.63;;;6.20;99.90;;;;;;5092393;28;20085;-65
2022/12/01 01:04:16;;;;;;;78.68;24.20;;;6.20;99.90;;;;;;5091331;28;20442;-65
2022/12/01 01:06:44;;;;;;;67.68;24.20;;;6.20;99.90;;;;;;5091911;28;20079;-64
2022/12/01 01:09:12;;;;;;;68.47;22.10;;;6.20;99.90;;;;;;5092043;28;20446;-66
2022/12/01 01:11:38;;;;;;;74.68;22.70;;;6.20;99.90;;;;;;5092126;28;20118;-65
2022/12/01 01:14:04;;;;;;;78.95;24.67;;;6.20;99.90;;;;;;5091506;28;20123;-65
2022/12/01 01:16:29;;;;;;;77.78;23.35;;;6.20;99.90;;;;;;5092011;28;20040;-64
2022/12/01 01:18:56;;;;;;;83.55;25.70;;;6.20;99.90;;;;;;5092107;28;20085;-65
2022/12/01 01:21:22;;;;;;;79.68;25.80;;;6.20;99.90;;;;;;5091740;28;20079;-66
2022/12/01 01:23:49;;;;;;;74.35;22.90;;;6.20;99.90;;;;;;5090051;28;20097;-66
2022/12/01 01:26:25;;;;;;;77.70;24.33;;;6.20;99.90;;;;;;5091560;28;20496;-65
2022/12/01 01:28:51;;;;;;;75.38;22.80;;;6.20;99.90;;;;;;5091715;28;20036;-65
2022/12/01 01:31:20;;;;;;;80.43;23.77;;;6.20;99.90;;;;;;5090302;28;20058;-65
2022/12/01 01:33:46;;;;;;;76.40;23.63;;;6.20;99.90;;;;;;5090967;28;20032;-66
2022/12/01 01:36:12;;;;;;;76.00;22.52;;;6.20;99.90;;;;;;5091435;28;20032;-65
2022/12/01 01:38:38;;;;;;;79.45;23.73;;;6.20;99.90;;;;;;5091403;28;20086;-64
2022/12/01 01:41:04;;;;;;;83.60;24.92;;;6.20;99.90;;;;;;5091687;28;20072;-65
2022/12/01 01:43:48;;;;;;;87.05;25.58;;;6.20;99.90;;;;;;5091550;28;20054;-65
2022/12/01 01:46:18;;;;;;;78.97;25.23;;;6.20;99.90;;;;;;5091557;28;20048;-65
2022/12/01 01:48:48;;;;;;;79.10;24.30;;;6.20;99.90;;;;;;5090292;28;20043;-64
2022/12/01 01:51:16;;;;;;;75.13;25.80;;;6.20;99.90;;;;;;5091477;28;20044;-64
2022/12/01 01:53:43;;;;;;;77.45;23.45;;;6.20;99.90;;;;;;5091044;28;20062;-65
2022/12/01 01:56:09;;;;;;;76.88;25.58;;;6.20;99.90;;;;;;5091716;28;20036;-65
2022/12/01 01:58:36;;;;;;;79.05;24.58;;;6.20;99.90;;;;;;5091183;28;20036;-66
2022/12/01 02:01:02;;;;;;;67.75;21.25;;;6.20;99.90;;;;;;5091261;28;20044;-65
2022/12/01 02:03:29;;;;;;;82.97;24.25;;;6.20;99.90;;;;;;5091323;28;20047;-67
2022/12/01 02:05:55;;;;;;;78.88;25.35;;;6.20;99.90;;;;;;5090557;28;20435;-65
2022/12/01 02:08:21;;;;;;;79.80;26.70;;;6.20;99.90;;;;;;5080885;28;20045;-65
2022/12/01 02:11:20;;;;;;;75.00;24.45;;;6.20;99.90;;;;;;5071032;28;20553;-65
2022/12/01 02:14:10;;;;;;;90.78;26.70;;;6.20;99.90;;;;;;5070037;28;20037;-66
2022/12/01 02:16:54;;;;;;;69.85;21.40;;;6.20;99.90;;;;;;5069929;28;20040;-65
2022/12/01 02:19:50;;;;;;;74.80;25.33;;;6.20;99.90;;;;;;5070799;28;20037;-66
2022/12/01 02:22:42;;;;;;;77.35;25.02;;;6.20;99.90;;;;;;5052705;28;20047;-66
2022/12/01 02:25:18;;;;;;;86.55;25.65;;;6.20;99.90;;;;;;5053638;28;20045;-66
2022/12/01 02:28:01;;;;;;;92.57;26.67;;;6.20;99.90;;;;;;5070873;28;20055;-66
2022/12/01 02:30:27;;;;;;;82.32;26.13;;;6.20;99.90;;;;;;5070766;28;20037;-65
2022/12/01 02:33:06;;;;;;;85.18;26.08;;;6.20;99.90;;;;;;5070954;28;20382;-66
2022/12/01 02:35:42;;;;;;;82.95;25.70;;;6.20;99.90;;;;;;5071870;28;20643;-66
2022/12/01 02:38:13;;;;;;;77.15;25.80;;;6.20;99.90;;;;;;5074768;28;20033;-66
2022/12/01 02:40:42;;;;;;;93.20;27.48;;;6.20;99.90;;;;;;5074780;28;20401;-65
2022/12/01 02:43:14;;;;;;;84.28;25.40;;;6.20;99.90;;;;;;5073452;28;20044;-66
2022/12/01 02:46:13;;;;;;;86.95;24.02;;;6.20;99.90;;;;;;5073713;28;20093;-66
2022/12/01 02:48:43;;;;;;;86.57;23.50;;;6.20;99.90;;;;;;5065058;28;20074;-66
2022/12/01 02:51:21;;;;;;;85.75;26.25;;;6.20;99.90;;;;;;5072885;28;20044;-65
2022/12/01 02:53:48;;;;;;;72.28;24.13;;;6.20;99.90;;;;;;5073824;28;20043;-66
2022/12/01 02:56:18;;;;;;;78.72;26.27;;;6.20;99.90;;;;;;5074189;28;20079;-65
2022/12/01 02:58:44;;;;;;;80.13;26.40;;;6.20;99.90;;;;;;5074153;28;20596;-65
2022/12/01 03:01:28;;;;;;;89.40;26.38;;;6.20;99.90;;;;;;5074395;28;20115;-65
2022/12/01 03:03:59;;;;;;;85.93;27.77;;;6.20;99.90;;;;;;5055391;28;20056;-65
2022/12/01 03:06:53;;;;;;;76.28;25.02;;;6.20;99.90;;;;;;5074096;28;20047;-65
2022/12/01 03:09:36;;;;;;;80.38;26.77;;;6.20;99.90;;;;;;5074181;28;20052;-66
2022/12/01 03:12:36;;;;;;;85.72;26.70;;;6.10;99.90;;;;;;5074009;28;20041;-65
2022/12/01 03:15:15;;;;;;;79.22;26.20;;;6.20;99.90;;;;;;5072134;28;20046;-65
2022/12/01 03:18:13;;;;;;;72.15;23.98;;;6.20;99.90;;;;;;5073874;28;20048;-66
2022/12/01 03:21:24;;;;;;;74.25;26.27;;;6.20;99.90;;;;;;5074181;28;20044;-65
2022/12/01 03:23:53;;;;;;;74.53;25.73;;;6.20;99.90;;;;;;5070824;28;20496;-66
2022/12/01 03:26:21;;;;;;;76.55;25.08;;;6.20;99.90;;;;;;5073738;28;20072;-66
2022/12/01 03:29:04;;;;;;;73.65;26.20;;;6.10;99.90;;;;;;5073517;28;20075;-66
2022/12/01 03:31:39;;;;;;;68.28;25.08;;;6.10;99.90;;;;;;5073907;28;20123;-66
2022/12/01 03:34:25;;;;;;;75.95;26.42;;;6.20;99.90;;;;;;5073192;28;20892;-66
2022/12/01 03:37:01;;;;;;;75.82;25.65;;;6.10;99.90;;;;;;5055254;28;20132;-66
2022/12/01 03:39:33;;;;;;;72.07;25.83;;;6.10;99.90;;;;;;5073873;28;20037;-66
2022/12/01 03:42:04;;;;;;;63.43;24.90;;;6.10;99.90;;;;;;5072392;28;20041;-66
2022/12/01 03:44:36;;;;;;;71.47;25.02;;;6.10;99.90;;;;;;5072960;28;20072;-65
2022/12/01 03:47:09;;;;;;;68.43;25.53;;;6.10;99.90;;;;;;5072575;28;20033;-66
2022/12/01 03:49:35;;;;;;;74.68;25.50;;;6.10;99.90;;;;;;5073332;28;20040;-65
2022/12/01 03:52:28;;;;;;;71.78;26.52;;;6.10;99.90;;;;;;5073080;28;20119;-66
2022/12/01 03:55:11;;;;;;;71.85;28.05;;;6.10;99.90;;;;;;5072332;28;20045;-65
2022/12/01 03:57:45;;;;;;;75.75;26.77;;;6.10;99.90;;;;;;5073140;28;20416;-65
2022/12/01 04:00:12;;;;;;;70.30;25.65;;;6.10;99.90;;;;;;5073149;28;20040;-65
2022/12/01 04:02:38;;;;;;;76.95;27.10;;;6.10;99.90;;;;;;5071715;28;20036;-66
2022/12/01 04:05:05;;;;;;;77.72;28.15;;;6.10;99.90;;;;;;5071996;28;20056;-66
2022/12/01 04:07:30;;;;;;;70.32;27.73;;;6.10;99.90;;;;;;5073251;28;20393;-65
2022/12/01 04:09:56;;;;;;;75.60;26.38;;;6.10;99.90;;;;;;5073105;28;20042;-65
2022/12/01 04:12:33;;;;;;;72.00;25.55;;;6.10;99.90;;;;;;5073115;28;20071;-65
2022/12/01 04:15:09;;;;;;;78.22;26.63;;;6.10;99.90;;;;;;5053985;28;20037;-66
2022/12/01 04:17:34;;;;;;;77.57;25.67;;;6.10;99.90;;;;;;5073056;28;20039;-66
2022/12/01 04:20:00;;;;;;;70.75;26.70;;;6.10;99.90;;;;;;5072906;28;20541;-65
2022/12/01 04:22:26;;;;;;;76.53;24.85;;;6.10;99.90;;;;;;5072779;28;20090;-66
2022/12/01 04:24:53;;;;;;;72.28;25.85;;;6.10;99.90;;;;;;5071739;28;20078;-65
2022/12/01 04:27:19;;;;;;;75.68;26.17;;;6.10;99.90;;;;;;5072823;28;20075;-65
2022/12/01 04:29:44;;;;;;;78.60;26.02;;;6.10;99.90;;;;;;5072658;28;20044;-66
2022/12/01 04:32:11;;;;;;;72.05;26.38;;;6.10;99.90;;;;;;5072852;28;20086;-66
2022/12/01 04:34:37;;;;;;;77.47;27.45;;;6.10;99.90;;;;;;5070075;28;20041;-66
2022/12/01 04:37:06;;;;;;;65.35;25.17;;;6.10;99.90;;;;;;5072068;28;20169;-65
2022/12/01 04:39:33;;;;;;;75.32;25.80;;;6.10;99.90;;;;;;5072455;28;20082;-65
2022/12/01 04:41:58;;;;;;;75.55;25.92;;;6.10;99.90;;;;;;5070836;28;20063;-66
2022/12/01 04:44:24;;;;;;;76.10;27.20;;;6.10;99.90;;;;;;5071404;28;20032;-65
2022/12/01 04:46:52;;;;;;;73.10;27.50;;;6.10;99.90;;;;;;5072565;28;20626;-65
2022/12/01 04:49:20;;;;;;;71.22;25.70;;;6.10;99.90;;;;;;5072169;28;20041;-66
2022/12/01 04:51:46;;;;;;;73.00;27.13;;;6.10;99.90;;;;;;5072227;28;20124;-65
2022/12/01 04:54:11;;;;;;;71.45;26.63;;;6.10;99.90;;;;;;5069987;28;20549;-66
2022/12/01 04:56:37;;;;;;;75.63;25.77;;;6.10;99.90;;;;;;5072232;28;20055;-64
2022/12/01 04:59:02;;;;;;;70.70;25.55;;;6.10;99.90;;;;;;5071820;28;20040;-66
2022/12/01 05:01:28;;;;;;;73.47;26.33;;;6.10;99.90;;;;;;5071875;28;20521;-64
2022/12/01 05:03:54;;;;;;;70.38;24.50;;;6.10;99.90;;;;;;5070863;28;20044;-65
2022/12/01 05:06:25;;;;;;;76.25;27.35;;;6.10;99.90;;;;;;5071394;28;20045;-65
2022/12/01 05:08:54;;;;;;;68.25;25.08;;;6.10;99.90;;;;;;5071983;28;20055;-66
2022/12/01 05:11:19;;;;;;;74.38;27.40;;;6.10;99.90;;;;;;5071575;28;20070;-65
2022/12/01 05:13:47;;;;;;;69.63;24.13;;;6.10;99.90;;;;;;5071039;28;20524;-65
2022/12/01 05:16:17;;;;;;;69.07;25.20;;;6.10;99.90;;;;;;5071611;28;20561;-66
2022/12/01 05:18:47;;;;;;;74.60;28.15;;;6.10;99.90;;;;;;5071495;28;20043;-65
2022/12/01 05:21:12;;;;;;;71.90;26.63;;;6.10;99.90;;;;;;5071848;28;20037;-65
2022/12/01 05:23:38;;;;;;;75.18;25.23;;;6.10;99.90;;;;;;5071880;28;20043;-66
2022/12/01 05:26:06;;;;;;;72.80;26.58;;;6.10;99.90;;;;;;5070841;28;20090;-65
2022/12/01 05:28:31;;;;;;;73.30;25.45;;;6.10;99.90;;;;;;5071756;28;20126;-65
2022/12/01 05:30:57;;;;;;;68.40;27.42;;;6.10;99.90;;;;;;5071202;28;20037;-65
2022/12/01 05:33:24;;;;;;;75.80;25.65;;;6.10;99.90;;;;;;5053455;28;20044;-70
2022/12/01 05:35:51;;;;;;;72.75;25.10;;;6.10;99.90;;;;;;5070315;28;20032;-65
2022/12/01 05:38:17;;;;;;;79.25;28.85;;;6.10;99.90;;;;;;5053535;28;20045;-66
2022/12/01 05:40:49;;;;;;;70.28;26.50;;;6.10;99.90;;;;;;5071449;28;20090;-66
2022/12/01 05:43:14;;;;;;;71.78;27.10;;;6.10;99.90;;;;;;5071174;28;20048;-66
2022/12/01 05:45:40;;;;;;;82.07;27.00;;;6.10;99.90;;;;;;5070253;28;20036;-65
2022/12/01 05:48:05;;;;;;;76.97;26.95;;;6.10;99.90;;;;;;5071184;28;20041;-66
2022/12/01 05:50:31;;;;;;;78.85;26.42;;;6.10;99.90;;;;;;5071015;28;20052;-65
2022/12/01 05:52:56;;;;;;;76.95;27.85;;;6.10;99.90;;;;;;5071234;28;20098;-66
2022/12/01 05:55:22;;;;;;;85.35;28.02;;;6.00;99.90;;;;;;5070220;28;20038;-65
2022/12/01 05:57:48;;;;;;;76.22;27.35;;;6.10;99.90;;;;;;5070917;28;20413;-66
2022/12/01 06:00:14;;;;;;;71.45;26.02;;;6.10;99.90;;;;;;5070752;28;20048;-66
2022/12/01 06:02:40;;;;;;;78.07;27.40;;;6.00;99.90;;;;;;5069710;28;20037;-67
2022/12/01 06:05:06;;;;;;;76.53;27.92;;;6.00;99.90;;;;;;5070148;28;20119;-66
2022/12/01 06:07:33;;;;;;;75.50;26.90;;;6.00;99.90;;;;;;5070960;28;20072;-66
2022/12/01 06:09:59;;;;;;;75.70;26.15;;;6.00;99.90;;;;;;5069043;28;20049;-66
2022/12/01 06:12:25;;;;;;;72.78;26.20;;;6.00;99.90;;;;;;5070562;28;20059;-66
2022/12/01 06:14:50;;;;;;;70.05;26.23;;;6.00;99.90;;;;;;5070201;28;20037;-66
2022/12/01 06:17:16;;;;;;;82.80;26.17;;;6.00;99.90;;;;;;5070640;28;20089;-66
2022/12/01 06:19:42;;;;;;;84.05;27.35;;;6.00;99.90;;;;;;5070990;28;20067;-65
2022/12/01 06:22:08;;;;;;;73.25;25.60;;;6.00;99.90;;;;;;5071022;28;20079;-65
2022/12/01 06:24:34;;;;;;;76.10;28.23;;;6.00;99.90;;;;;;5070056;28;20040;-67
2022/12/01 06:26:59;;;;;;;85.90;30.25;;;6.00;99.90;;;;;;5070895;28;20093;-65
2022/12/01 06:29:25;;;;;;;77.18;28.25;;;6.00;99.90;;;;;;5070835;28;20115;-66
2022/12/01 06:31:50;;;;;;;81.47;28.80;;;6.00;99.90;;;;;;5070538;28;20131;-65
2022/12/01 06:34:16;;;;;;;90.47;30.50;;;6.00;99.90;;;;;;5070091;28;20025;-66
2022/12/01 06:36:42;;;;;;;75.65;27.48;;;6.00;99.90;;;;;;5070754;28;20090;-65
2022/12/01 06:39:08;;;;;;;85.50;27.92;;;6.00;99.90;;;;;;5070805;28;20798;-66
2022/12/01 06:41:38;;;;;;;83.95;29.63;;;6.00;99.90;;;;;;5052553;28;20045;-67
2022/12/01 06:44:04;;;;;;;74.70;27.30;;;6.00;99.90;;;;;;5069640;28;20045;-66
2022/12/01 06:46:29;;;;;;;69.65;26.45;;;6.00;99.90;;;;;;5069711;28;20077;-66
2022/12/01 06:48:55;;;;;;;84.78;29.38;;;6.00;99.90;;;;;;5070443;28;20044;-66
2022/12/01 06:51:21;;;;;;;84.57;28.35;;;6.10;99.90;;;;;;5070747;28;20481;-66
2022/12/01 06:53:46;;;;;;;74.07;26.27;;;6.00;99.90;;;;;;5069666;28;20052;-66
2022/12/01 06:56:12;;;;;;;81.55;29.08;;;6.00;99.90;;;;;;5070660;28;20036;-66
2022/12/01 06:58:37;;;;;;;76.18;28.02;;;6.00;99.90;;;;;;5070392;28;20039;-66
2022/12/01 07:01:08;;;;;;;84.80;27.33;;;6.00;99.90;;;;;;5070554;28;20053;-66
2022/12/01 07:03:34;;;;;;;79.28;28.73;;;6.00;99.90;;;;;;5070632;28;20408;-66
2022/12/01 07:06:01;;;;;;;84.10;28.48;;;6.00;99.90;;;;;;5051652;28;20044;-66
2022/12/01 07:08:28;;;;;;;80.05;27.23;;;6.00;99.90;;;;;;5070582;28;20040;-66
2022/12/01 07:10:57;;;;;;;75.43;26.95;;;6.00;99.90;;;;;;5070255;28;20072;-66
2022/12/01 07:13:23;;;;;;;78.78;27.80;;;6.00;99.90;;;;;;5070119;28;20086;-68
2022/12/01 07:15:48;;;;;;;78.05;27.73;;;6.00;99.90;;;;;;5069401;28;20040;-66
2022/12/01 07:18:14;;;;;;;86.72;29.35;;;6.00;99.90;;;;;;5070149;28;20043;-66
2022/12/01 07:20:39;;;;;;;78.85;26.30;;;6.00;99.90;;;;;;5070525;28;20075;-66
2022/12/01 07:23:05;;;;;;;77.68;28.83;;;6.00;99.90;;;;;;5072797;28;20032;-67
2022/12/01 07:25:30;;;;;;;86.32;28.55;;;6.00;99.90;;;;;;5072997;28;20061;-65
2022/12/01 07:27:56;;;;;;;81.25;29.38;;;6.00;99.90;;;;;;5073972;28;20040;-66
2022/12/01 07:30:21;;;;;;;77.13;27.30;;;6.00;99.90;;;;;;5073792;28;20497;-67
2022/12/01 07:32:47;;;;;;;79.38;27.23;;;6.00;99.90;;;;;;5073815;28;20033;-66
2022/12/01 07:35:13;;;;;;;79.60;28.30;;;6.00;99.90;;;;;;5070966;28;20076;-66
2022/12/01 07:37:38;;;;;;;78.45;27.73;;;6.00;99.90;;;;;;5071753;28;20043;-66
2022/12/01 07:40:05;;;;;;;71.85;25.33;;;6.00;99.90;;;;;;5064953;28;20040;-67
2022/12/01 07:42:30;;;;;;;83.65;26.75;;;6.00;99.90;;;;;;5063244;28;20111;-66
2022/12/01 07:44:56;;;;;;;72.90;27.58;;;6.00;99.90;;;;;;5071362;28;20167;-67
2022/12/01 07:47:21;;;;;;;79.47;25.60;;;6.00;99.90;;;;;;5071716;28;20044;-66
2022/12/01 07:49:47;;;;;;;82.45;28.15;;;6.00;99.90;;;;;;5071594;28;20036;-66
2022/12/01 07:52:12;;;;;;;71.85;26.60;;;6.00;99.90;;;;;;5069612;28;20040;-66
2022/12/01 07:54:38;;;;;;;80.05;27.45;;;6.00;99.90;;;;;;5069894;28;20044;-67
2022/12/01 07:57:03;;;;;;;76.47;25.85;;;6.00;99.90;;;;;;5073180;28;20044;-66
2022/12/01 07:59:29;;;;;;;79.90;26.60;;;6.10;99.90;;;;;;5055090;28;20040;-65
2022/12/01 08:01:54;;;;;;;80.25;26.85;;;6.00;99.90;;;;;;5073465;28;20097;-66
2022/12/01 08:04:20;;;;;;;91.88;28.75;;;6.10;99.90;;;;;;5072560;28;20059;-67
2022/12/01 08:06:46;;;;;;;90.40;28.15;;;6.10;99.90;;;;;;5073027;28;20040;-66
2022/12/01 08:09:11;;;;;;;73.95;26.08;;;6.10;99.90;;;;;;5073301;28;20382;-66
2022/12/01 08:11:37;;;;;;;78.22;27.45;;;6.10;99.90;;;;;;5072903;28;20094;-66
2022/12/01 08:14:02;;;;;;;80.95;26.75;;;6.10;99.90;;;;;;5071078;28;20048;-66
2022/12/01 08:16:29;;;;;;;83.15;27.20;;;6.00;99.90;;;;;;5072846;28;20075;-66
2022/12/01 08:18:55;;;;;;;78.40;27.85;;;6.10;99.90;;;;;;5072948;28;20062;-67
2022/12/01 08:21:22;;;;;;;82.43;29.27;;;6.10;99.90;;;;;;5072942;28;20063;-66
2022/12/01 08:23:52;;;;;;;79.28;27.05;;;6.10;99.90;;;;;;5053831;28;20127;-65
2022/12/01 08:26:19;;;;;;;80.78;28.02;;;6.10;99.90;;;;;;5071587;28;20477;-66
2022/12/01 08:28:45;;;;;;;86.20;27.40;;;6.10;99.90;;;;;;5072612;28;20043;-67
2022/12/01 08:31:11;;;;;;;87.00;27.92;;;6.10;99.90;;;;;;5072656;28;20416;-66
2022/12/01 08:33:37;;;;;;;81.75;27.20;;;6.10;99.90;;;;;;5072171;28;20119;-66
2022/12/01 08:36:04;;;;;;;82.07;27.38;;;6.20;99.90;;;;;;5071624;28;20036;-66
2022/12/01 08:38:29;;;;;;;80.03;26.42;;;6.20;99.90;;;;;;5072393;28;20489;-66
2022/12/01 08:41:07;;;;;;;80.38;26.52;;;6.20;99.90;;;;;;5072548;28;20048;-66
2022/12/01 08:43:38;;;;;;;83.05;28.02;;;6.20;99.90;;;;;;5072439;28;20052;-67
2022/12/01 08:46:04;;;;;;;71.32;26.75;;;6.20;99.90;;;;;;5071637;28;20109;-66
2022/12/01 08:48:30;;;;;;;79.68;27.23;;;6.20;99.90;;;;;;5072329;28;20052;-67
2022/12/01 08:51:10;;;;;;;73.22;27.25;;;6.20;99.90;;;;;;5071993;28;20485;-66
2022/12/01 08:53:38;;;;;;;83.18;28.15;;;6.20;99.90;;;;;;5072415;28;20043;-66
2022/12/01 08:56:07;;;;;;;78.68;27.70;;;6.20;99.90;;;;;;5071150;28;20059;-66
2022/12/01 08:58:33;;;;;;;81.30;27.40;;;6.20;99.90;;;;;;5072040;28;20033;-66
2022/12/01 09:01:04;;;;;;;78.40;26.00;;;6.20;99.90;;;;;;5072280;28;20051;-66
2022/12/01 09:03:30;;;;;;;94.43;28.02;;;6.30;99.90;;;;;;5071753;28;20048;-67
2022/12/01 09:06:22;;;;;;;75.75;26.45;;;6.30;99.90;;;;;;5071204;28;20041;-66
2022/12/01 09:08:47;;;;;;;75.25;25.08;;;6.30;99.90;;;;;;5067820;28;20059;-67
2022/12/01 09:11:17;;;;;;;79.63;25.58;;;6.30;99.90;;;;;;5071598;28;20052;-66
2022/12/01 09:13:44;;;;;;;86.97;27.25;;;6.30;99.90;;;;;;5071323;28;20133;-66
2022/12/01 09:16:15;;;;;;;75.55;26.63;;;6.30;99.90;;;;;;5071347;28;20033;-66
2022/12/01 09:18:41;;;;;;;81.38;25.58;;;6.30;99.90;;;;;;5071825;28;20390;-66
2022/12/01 09:21:24;;;;;;;71.03;27.30;;;6.30;99.90;;;;;;5071737;28;20044;-66
2022/12/01 09:23:50;;;;;;;77.25;25.10;;;6.30;99.90;;;;;;5071020;28;20047;-67
2022/12/01 09:26:17;;;;;;;77.32;26.77;;;6.30;99.90;;;;;;5071407;28;20036;-67
2022/12/01 09:28:48;;;;;;;84.30;26.63;;;6.30;99.90;;;;;;5071601;28;20044;-66
2022/12/01 09:31:15;;;;;;;76.28;25.02;;;6.30;99.90;;;;;;5071417;28;20048;-66
2022/12/01 09:33:41;;;;;;;78.05;25.00;;;6.40;99.90;;;;;;5071314;28;20086;-66
2022/12/01 09:36:07;;;;;;;82.45;28.20;;;6.40;99.90;;;;;;5071306;28;20477;-66
2022/12/01 09:38:34;;;;;;;77.18;26.45;;;6.40;99.90;;;;;;5071360;28;20378;-66
2022/12/01 09:41:05;;;;;;;81.75;24.77;;;6.40;99.90;;;;;;5071536;28;20119;-67
2022/12/01 09:44:04;;;;;;;71.85;26.42;;;6.40;99.90;;;;;;5053519;28;20144;-66
2022/12/01 09:46:36;;;;;;;76.47;25.30;;;6.40;99.90;;;;;;5071310;28;20115;-65
2022/12/01 09:49:04;;;;;;;74.75;24.17;;;6.40;99.90;;;;;;5071105;28;20049;-66
2022/12/01 09:51:34;;;;;;;77.30;25.20;;;6.40;99.90;;;;;;5071061;28;20568;-66
2022/12/01 09:54:00;;;;;;;68.25;24.88;;;6.50;99.90;;;;;;5070498;28;20036;-66
2022/12/01 09:56:28;;;;;;;72.05;23.75;;;6.50;99.90;;;;;;5071180;28;20047;-66
2022/12/01 09:59:01;;;;;;;67.38;25.05;;;6.50;99.90;;;;;;5052916;28;20546;-65
2022/12/01 10:01:40;;;;;;;82.70;25.38;;;6.50;99.90;;;;;;5071320;28;20040;-65
2022/12/01 10:04:17;;;;;;;65.78;22.65;;;6.50;99.90;;;;;;5070330;28;20400;-66
2022/12/01 10:06:58;;;;;;;74.80;26.25;;;6.50;99.90;;;;;;5070815;28;20044;-66
2022/12/01 10:09:45;;;;;;;67.30;25.50;;;6.50;99.90;;;;;;5070917;28;20216;-65
2022/12/01 10:12:15;;;;;;;71.88;24.88;;;6.50;99.90;;;;;;5070900;28;20040;-66
2022/12/01 10:14:42;;;;;;;68.82;26.05;;;6.60;99.90;;;;;;5070157;28;20047;-66
2022/12/01 10:17:41;;;;;;;72.65;25.55;;;6.60;99.90;;;;;;5071046;28;20039;-65
2022/12/01 10:20:23;;;;;;;66.03;22.35;;;6.60;99.90;;;;;;5070920;28;20174;-66
2022/12/01 10:23:06;;;;;;;71.47;24.48;;;6.60;99.90;;;;;;5070722;28;20107;-66
2022/12/01 10:25:50;;;;;;;62.78;23.50;;;6.60;99.90;;;;;;5068515;28;20075;-66
2022/12/01 10:28:30;;;;;;;70.30;23.67;;;6.60;99.90;;;;;;5070843;28;20397;-66
2022/12/01 10:31:06;;;;;;;62.53;22.63;;;6.60;99.90;;;;;;5064759;28;20041;-66
2022/12/01 10:33:39;;;;;;;65.72;23.90;;;6.70;99.90;;;;;;5070984;28;20041;-65
2022/12/01 10:36:04;;;;;;;;;;;6.70;99.90;;;;;;5070705;28;20039;-65
2022/12/01 10:38:34;;;;;;;66.50;22.58;;;6.80;99.90;;;;;;5070714;28;19916;-66
2022/12/01 10:41:02;;;;;;;70.90;23.70;;;6.70;99.90;;;;;;5070998;28;20415;-66
2022/12/01 10:43:35;;;;;;;66.72;23.15;;;6.70;99.90;;;;;;5070611;28;20051;-65
2022/12/01 10:46:14;;;;;;;66.63;23.08;;;6.80;99.90;;;;;;5068533;28;20044;-65
2022/12/01 10:48:57;;;;;;;62.05;22.30;;;6.70;99.90;;;;;;5070563;28;20041;-66
2022/12/01 10:51:24;;;;;;;61.22;23.25;;;6.70;99.90;;;;;;5070469;28;20037;-66
2022/12/01 10:53:57;;;;;;;62.53;23.25;;;6.70;99.90;;;;;;5069855;28;20033;-67
2022/12/01 10:56:23;;;;;;;65.65;22.70;;;6.80;99.90;;;;;;5072056;28;20101;-66
2022/12/01 10:58:52;;;;;;;64.43;23.80;;;6.80;99.90;;;;;;5074222;28;20500;-66
2022/12/01 11:01:35;;;;;;;68.78;23.40;;;6.80;99.90;;;;;;5074152;28;20484;-66
2022/12/01 11:04:25;;;;;;;59.83;21.00;;;6.80;99.90;;;;;;5073725;28;20202;-67
2022/12/01 11:06:52;;;;;;;64.55;23.05;;;6.80;99.90;;;;;;5074229;28;20515;-66
2022/12/01 11:09:20;;;;;;;62.17;21.52;;;6.70;99.90;;;;;;5074310;28;20047;-66
2022/12/01 11:11:57;;;;;;;65.85;23.85;;;6.80;99.90;;;;;;5074029;28;20045;-66
2022/12/01 11:14:48;;;;;;;64.55;22.73;;;6.80;99.90;;;;;;5073296;28;20043;-67
2022/12/01 11:17:31;;;;;;;55.05;20.63;;;6.80;99.90;;;;;;5074283;28;20048;-67
2022/12/01 11:19:57;;;;;;;62.03;21.00;;;6.80;99.90;;;;;;5056171;28;20048;-66
2022/12/01 11:22:30;;;;;;;57.53;23.80;;;6.80;99.90;;;;;;5056102;28;20045;-67
2022/12/01 11:25:00;;;;;;;;;;;6.80;99.90;;;;;;5073317;28;20048;-66
2022/12/01 11:27:30;;;;;;;57.33;20.63;;;6.90;99.90;;;;;;5072217;28;19916;-66
2022/12/01 11:30:24;;;;;;;68.28;23.00;;;6.90;99.90;;;;;;5073803;28;20158;-66
2022/12/01 11:32:57;;;;;;;62.95;22.30;;;6.90;99.90;;;;;;5073398;28;20048;-67
2022/12/01 11:35:27;;;;;;;61.75;23.55;;;6.90;99.90;;;;;;5072693;28;20634;-65
2022/12/01 11:37:56;;;;;;;60.47;22.67;;;7.00;99.90;;;;;;5071981;28;20048;-66
2022/12/01 11:40:50;;;;;;;57.97;22.38;;;7.00;99.90;;;;;;5072127;28;20532;-65
2022/12/01 11:43:31;;;;;;;58.67;24.88;;;7.00;99.90;;;;;;5073304;28;20037;-65
2022/12/01 11:45:59;;;;;;;62.33;22.27;;;6.90;99.90;;;;;;5072418;28;20493;-65
2022/12/01 11:48:28;;;;;;;70.20;24.20;;;6.90;99.90;;;;;;5073615;28;20101;-67
2022/12/01 11:51:00;;;;;;;66.43;21.63;;;7.00;99.90;;;;;;5073207;28;20044;-66
2022/12/01 11:53:36;;;;;;;54.35;21.88;;;7.00;99.90;;;;;;5073286;28;20400;-66
2022/12/01 11:56:22;;;;;;;60.58;22.27;;;6.90;99.90;;;;;;5054389;28;20048;-66
2022/12/01 11:58:50;;;;;;;63.78;21.30;;;6.90;99.90;;;;;;5073009;28;20052;-66
2022/12/01 12:01:23;;;;;;;58.13;21.80;;;6.90;99.90;;;;;;5072128;28;20044;-66
2022/12/01 12:04:18;;;;;;;54.55;21.45;;;6.90;99.90;;;;;;5054402;28;20088;-66
2022/12/01 12:06:53;;;;;;;55.85;20.40;;;6.90;99.90;;;;;;5072851;28;20075;-66
2022/12/01 12:09:46;;;;;;;57.67;22.25;;;6.90;99.90;;;;;;5054383;28;20055;-67
2022/12/01 12:12:46;;;;;;;65.20;22.10;;;6.90;99.90;;;;;;5072945;28;20044;-67
2022/12/01 12:15:26;;;;;;;51.13;19.90;;;7.00;99.90;;;;;;5072191;28;20060;-67
2022/12/01 12:18:28;;;;;;;52.40;20.63;;;7.00;99.90;;;;;;5072953;28;20386;-67
2022/12/01 12:21:55;;;;;;;55.40;19.42;;;7.00;99.90;;;;;;5029625;28;20471;-66
2022/12/01 12:24:30;;;;;;;50.95;19.85;;;7.00;99.90;;;;;;4970760;28;20046;-66
2022/12/01 12:27:10;;;;;;;48.38;20.38;;;7.00;99.90;;;;;;4971800;28;20046;-66
2022/12/01 12:29:54;;;;;;;51.78;20.80;;;7.00;99.90;;;;;;5007975;28;20128;-67
2022/12/01 12:32:41;;;;;;;47.55;18.80;;;7.00;99.90;;;;;;5025173;28;20847;-69
2022/12/01 12:35:38;;;;;;;48.45;19.15;;;7.00;99.90;;;;;;4992297;28;20144;-67
2022/12/01 12:38:15;;;;;;;55.53;20.55;;;7.00;99.90;;;;;;5009193;28;20655;-67
2022/12/01 12:41:22;;;;;;;54.70;21.13;;;7.00;99.90;;;;;;5022287;28;20052;-68
2022/12/01 12:44:03;;;;;;;49.42;20.05;;;7.00;99.90;;;;;;5028308;28;20049;-67
2022/12/01 12:46:49;;;;;;;57.40;22.45;;;7.00;99.90;;;;;;5013256;28;20441;-68
2022/12/01 12:49:40;;;;;;;53.13;20.83;;;7.00;99.90;;;;;;5013047;28;20440;-68
2022/12/01 12:52:26;;;;;;;43.25;19.80;;;7.00;99.90;;;;;;5029421;28;20057;-67
2022/12/01 12:54:58;;;;;;;51.15;19.77;;;7.00;99.90;;;;;;4995633;28;20042;-67
2022/12/01 12:57:35;;;;;;;49.83;20.98;;;7.00;99.90;;;;;;5041000;28;20406;-68
2022/12/01 13:00:21;;;;;;;52.65;21.17;;;7.00;99.90;;;;;;5069283;28;20107;-67